createdAt,value
2023-03-25T00:00:45.190Z,34.10
2023-03-25T00:01:47.560Z,37.80
2023-03-25T00:02:54.974Z,39.70
2023-03-25T00:04:00.241Z,36.80
2023-03-25T00:05:03.560Z,34.30
2023-03-25T00:06:07.679Z,36.40
2023-03-25T00:07:10.845Z,36.00
2023-03-25T00:08:15.204Z,37.00
2023-03-25T00:09:19.131Z,37.30
2023-03-25T00:10:21.831Z,36.70
2023-03-25T00:11:28.221Z,36.50
2023-03-25T00:12:31.161Z,39.40
2023-03-25T00:13:35.142Z,38.60
2023-03-25T00:14:39.248Z,39.70
2023-03-25T00:15:45.288Z,40.30
2023-03-25T00:16:48.353Z,44.20
2023-03-25T00:17:50.783Z,37.60
2023-03-25T00:18:53.740Z,38.10
2023-03-25T00:19:56.339Z,48.55
2023-03-25T00:21:04.673Z,47.30
2023-03-25T00:22:08.208Z,46.00
2023-03-25T00:23:11.938Z,41.60
2023-03-25T00:24:16.138Z,46.00
2023-03-25T00:25:20.173Z,46.10
2023-03-25T00:26:23.131Z,44.60
2023-03-25T00:27:25.375Z,41.20
2023-03-25T00:28:33.684Z,45.60
2023-03-25T00:29:35.990Z,48.80
2023-03-25T00:30:40.367Z,48.10
2023-03-25T00:31:43.260Z,48.00
2023-03-25T00:32:49.256Z,49.00
2023-03-25T00:33:56.414Z,47.10
2023-03-25T00:34:59.295Z,44.50
2023-03-25T00:36:03.876Z,42.60
2023-03-25T00:37:06.142Z,39.50
2023-03-25T00:38:09.688Z,43.60
2023-03-25T00:39:12.281Z,42.60
2023-03-25T00:40:15.296Z,48.20
2023-03-25T00:41:25.216Z,51.50
2023-03-25T00:42:27.850Z,46.00
2023-03-25T00:43:30.088Z,48.60
2023-03-25T00:44:33.612Z,47.64
2023-03-25T00:45:35.857Z,48.50
2023-03-25T00:46:38.346Z,45.70
2023-03-25T00:47:41.178Z,47.70
2023-03-25T00:48:43.910Z,48.40
2023-03-25T00:49:46.299Z,41.40
2023-03-25T00:50:48.662Z,46.10
2023-03-25T00:51:52.818Z,46.00
2023-03-25T00:52:55.819Z,45.30
2023-03-25T00:54:02.925Z,42.90
2023-03-25T00:55:07.598Z,40.10
2023-03-25T00:56:10.420Z,35.60
2023-03-25T00:57:13.440Z,42.40
2023-03-25T00:58:15.948Z,40.36
2023-03-25T00:59:18.416Z,41.00
2023-03-25T01:00:20.981Z,38.90
2023-03-25T01:01:26.619Z,35.60
2023-03-25T01:02:31.390Z,34.90
2023-03-25T01:03:35.783Z,40.00
2023-03-25T01:04:41.474Z,41.70
2023-03-25T01:05:45.091Z,41.80
2023-03-25T01:06:50.553Z,40.10
2023-03-25T01:07:52.636Z,37.80
2023-03-25T01:08:57.479Z,40.20
2023-03-25T01:09:59.869Z,37.60
2023-03-25T01:11:02.455Z,36.30
2023-03-25T01:12:05.432Z,36.90
2023-03-25T01:13:07.755Z,35.70
2023-03-25T01:14:16.424Z,36.60
2023-03-25T01:15:18.819Z,35.20
2023-03-25T01:16:23.082Z,36.30
2023-03-25T01:17:25.771Z,34.64
2023-03-25T01:18:27.833Z,34.60
2023-03-25T01:19:30.675Z,33.89
2023-03-25T01:20:33.336Z,33.90
2023-03-25T01:21:36.268Z,34.00
2023-03-25T01:22:38.643Z,33.10
2023-03-25T01:23:41.451Z,33.30
2023-03-25T01:24:43.768Z,30.20
2023-03-25T01:25:46.093Z,30.70
2023-03-25T01:26:48.722Z,31.60
2023-03-25T01:27:50.844Z,31.80
2023-03-25T01:28:53.508Z,27.30
2023-03-25T01:29:55.741Z,30.10
2023-03-25T01:31:04.058Z,29.90
2023-03-25T01:32:06.324Z,29.80
2023-03-25T01:33:08.416Z,29.20
2023-03-25T01:34:10.801Z,28.11
2023-03-25T01:35:13.206Z,25.30
2023-03-25T01:36:17.104Z,27.20
2023-03-25T01:37:20.112Z,27.10
2023-03-25T01:38:23.002Z,27.80
2023-03-25T01:39:25.206Z,27.09
2023-03-25T01:40:28.720Z,25.50
2023-03-25T01:41:46.322Z,25.40
2023-03-25T01:42:36.199Z,23.80
2023-03-25T01:43:38.424Z,24.50
2023-03-25T01:44:44.103Z,22.60
2023-03-25T01:45:46.834Z,21.90
2023-03-25T01:46:52.467Z,21.20
2023-03-25T01:48:01.237Z,19.60
2023-03-25T01:49:07.659Z,17.20
2023-03-25T01:50:13.746Z,19.20
2023-03-25T01:51:19.574Z,13.70
2023-03-25T01:52:25.774Z,20.10
2023-03-25T01:53:31.392Z,16.10
2023-03-25T01:54:36.764Z,19.10
2023-03-25T01:55:39.816Z,18.60
2023-03-25T01:56:47.032Z,14.70
2023-03-25T01:57:54.363Z,18.40
2023-03-25T01:58:58.938Z,20.70
2023-03-25T02:00:01.632Z,15.90
2023-03-25T02:01:04.525Z,18.30
2023-03-25T02:02:08.912Z,19.55
2023-03-25T02:03:13.928Z,14.20
2023-03-25T02:04:21.697Z,18.30
2023-03-25T02:05:27.573Z,19.30
2023-03-25T02:06:51.521Z,19.00
2023-03-25T02:07:57.838Z,20.20
2023-03-25T02:09:06.014Z,20.90
2023-03-25T02:10:10.935Z,19.30
2023-03-25T02:11:14.248Z,16.70
2023-03-25T02:12:16.645Z,18.60
2023-03-25T02:13:19.710Z,18.90
2023-03-25T02:14:25.806Z,15.20
2023-03-25T02:15:32.052Z,15.90
2023-03-25T02:16:55.153Z,13.50
2023-03-25T02:18:12.828Z,18.00
2023-03-25T02:19:52.178Z,20.10
2023-03-25T02:22:25.453Z,15.80
2023-03-25T02:23:55.656Z,14.20
2023-03-25T02:25:07.621Z,12.50
2023-03-25T02:26:30.520Z,15.20
2023-03-25T02:27:38.247Z,20.80
2023-03-25T02:28:50.462Z,17.60
2023-03-25T02:29:59.476Z,20.40
2023-03-25T02:31:28.070Z,19.50
2023-03-25T02:32:46.995Z,20.30
2023-03-25T02:34:16.548Z,18.60
2023-03-25T02:35:39.460Z,17.10
2023-03-25T02:37:05.290Z,20.00
2023-03-25T02:38:25.694Z,20.30
2023-03-25T02:39:44.101Z,20.00
2023-03-25T02:40:51.577Z,22.50
2023-03-25T02:42:18.278Z,21.30
2023-03-25T02:43:24.592Z,22.00
2023-03-25T02:44:37.086Z,21.60
2023-03-25T02:45:46.072Z,18.50
2023-03-25T02:46:54.891Z,21.00
2023-03-25T02:48:01.154Z,20.50
2023-03-25T02:49:16.457Z,21.10
2023-03-25T02:50:25.345Z,19.30
2023-03-25T02:51:34.293Z,20.00
2023-03-25T02:52:42.919Z,17.70
2023-03-25T02:53:48.642Z,18.40
2023-03-25T02:54:56.022Z,19.50
2023-03-25T02:56:01.927Z,19.40
2023-03-25T02:57:08.323Z,19.70
2023-03-25T02:58:14.464Z,16.30
2023-03-25T02:59:21.802Z,19.20
2023-03-25T03:00:28.011Z,19.40
2023-03-25T03:01:32.467Z,18.70
2023-03-25T03:02:36.609Z,21.20
2023-03-25T03:03:39.305Z,21.80
2023-03-25T03:04:49.261Z,20.50
2023-03-25T03:05:54.908Z,21.30
2023-03-25T03:06:57.565Z,18.90
2023-03-25T03:08:17.452Z,19.50
2023-03-25T03:10:55.279Z,21.60
2023-03-25T03:12:13.099Z,20.00
2023-03-25T03:13:40.217Z,17.40
2023-03-25T03:14:46.061Z,17.60
2023-03-25T03:16:01.053Z,20.50
2023-03-25T03:17:19.511Z,19.70
2023-03-25T03:18:37.021Z,19.70
2023-03-25T03:19:47.253Z,17.40
2023-03-25T03:21:00.138Z,22.40
2023-03-25T03:22:38.352Z,20.90
2023-03-25T03:23:59.226Z,22.60
2023-03-25T03:25:08.589Z,22.30
2023-03-25T03:26:15.458Z,24.10
2023-03-25T03:27:25.553Z,16.20
2023-03-25T03:28:34.189Z,21.30
2023-03-25T03:29:40.404Z,21.90
2023-03-25T03:30:46.359Z,21.70
2023-03-25T03:32:07.568Z,19.60
2023-03-25T03:33:21.332Z,21.70
2023-03-25T03:34:30.247Z,21.80
2023-03-25T03:35:39.594Z,18.60
2023-03-25T03:36:45.502Z,19.20
2023-03-25T03:37:51.495Z,21.70
2023-03-25T03:39:00.800Z,18.90
2023-03-25T03:40:06.925Z,20.80
2023-03-25T03:41:13.497Z,20.60
2023-03-25T03:42:25.478Z,20.40
2023-03-25T03:43:42.294Z,21.30
2023-03-25T03:44:48.632Z,21.80
2023-03-25T03:45:54.660Z,20.70
2023-03-25T03:47:00.935Z,22.30
2023-03-25T03:48:06.944Z,21.60
2023-03-25T03:49:16.606Z,20.70
2023-03-25T03:50:23.065Z,22.80
2023-03-25T03:51:31.694Z,21.30
2023-03-25T03:54:01.801Z,22.70
2023-03-25T03:55:12.682Z,21.40
2023-03-25T03:56:24.668Z,21.90
2023-03-25T03:57:31.327Z,22.60
2023-03-25T03:58:42.312Z,22.50
2023-03-25T03:59:57.328Z,21.50
2023-03-25T04:01:15.259Z,20.70
2023-03-25T04:02:38.038Z,22.00
2023-03-25T04:03:52.838Z,21.70
2023-03-25T04:04:57.372Z,21.80
2023-03-25T04:06:05.002Z,23.20
2023-03-25T04:07:11.094Z,20.30
2023-03-25T04:08:28.742Z,19.40
2023-03-25T04:09:51.861Z,18.90
2023-03-25T04:11:04.500Z,17.70
2023-03-25T04:12:22.389Z,15.60
2023-03-25T04:13:28.390Z,21.10
2023-03-25T04:14:32.049Z,20.70
2023-03-25T04:15:34.316Z,17.70
2023-03-25T04:16:39.346Z,20.50
2023-03-25T04:17:42.900Z,21.20
2023-03-25T04:18:47.055Z,17.80
2023-03-25T04:19:51.823Z,19.70
2023-03-25T04:20:55.894Z,15.60
2023-03-25T04:21:58.194Z,21.70
2023-03-25T04:23:00.956Z,19.30
2023-03-25T04:24:04.124Z,18.30
2023-03-25T04:25:07.384Z,13.36
2023-03-25T04:26:12.096Z,21.60
2023-03-25T04:27:15.274Z,20.30
2023-03-25T04:28:19.359Z,22.10
2023-03-25T04:29:21.798Z,19.40
2023-03-25T04:30:25.954Z,21.30
2023-03-25T04:31:31.485Z,20.00
2023-03-25T04:32:34.634Z,22.60
2023-03-25T04:33:36.937Z,21.70
2023-03-25T04:34:40.816Z,22.10
2023-03-25T04:35:43.218Z,14.90
2023-03-25T04:36:49.582Z,21.40
2023-03-25T04:37:57.377Z,22.40
2023-03-25T04:39:01.206Z,20.60
2023-03-25T04:40:06.422Z,21.50
2023-03-25T04:41:10.077Z,16.80
2023-03-25T04:42:13.286Z,21.60
2023-03-25T04:43:16.916Z,22.10
2023-03-25T04:44:21.353Z,19.90
2023-03-25T04:45:24.912Z,21.20
2023-03-25T04:46:28.123Z,21.20
2023-03-25T04:47:31.223Z,21.36
2023-03-25T04:48:38.597Z,21.73
2023-03-25T04:49:45.388Z,22.00
2023-03-25T04:50:48.420Z,22.90
2023-03-25T04:51:52.724Z,19.70
2023-03-25T04:53:00.322Z,21.70
2023-03-25T04:54:03.682Z,20.80
2023-03-25T04:55:06.786Z,21.80
2023-03-25T04:56:16.561Z,21.60
2023-03-25T04:57:19.747Z,21.30
2023-03-25T04:58:22.504Z,19.20
2023-03-25T04:59:26.540Z,21.18
2023-03-25T05:00:29.054Z,17.60
2023-03-25T05:01:32.575Z,22.60
2023-03-25T05:02:34.930Z,22.50
2023-03-25T05:03:39.426Z,23.40
2023-03-25T05:04:42.965Z,22.80
2023-03-25T05:05:45.430Z,21.80
2023-03-25T05:06:50.698Z,23.60
2023-03-25T05:07:58.533Z,22.20
2023-03-25T05:09:03.815Z,22.70
2023-03-25T05:10:08.806Z,21.90
2023-03-25T05:11:11.121Z,22.80
2023-03-25T05:12:13.176Z,23.20
2023-03-25T05:13:23.974Z,22.22
2023-03-25T05:14:26.434Z,19.50
2023-03-25T05:15:32.095Z,20.00
2023-03-25T05:16:35.224Z,24.20
2023-03-25T05:17:39.024Z,24.40
2023-03-25T05:18:41.484Z,22.90
2023-03-25T05:19:43.943Z,15.20
2023-03-25T05:20:48.491Z,17.90
2023-03-25T05:21:51.833Z,22.00
2023-03-25T05:22:56.170Z,14.60
2023-03-25T05:24:00.469Z,21.10
2023-03-25T05:25:06.319Z,19.80
2023-03-25T05:26:11.638Z,21.30
2023-03-25T05:27:14.512Z,17.70
2023-03-25T05:28:17.512Z,19.82
2023-03-25T05:29:20.764Z,21.45
2023-03-25T05:30:24.037Z,21.20
2023-03-25T05:31:26.243Z,21.73
2023-03-25T05:32:31.693Z,19.40
2023-03-25T05:33:42.794Z,21.30
2023-03-25T05:34:48.143Z,21.80
2023-03-25T05:35:50.738Z,21.20
2023-03-25T05:36:53.802Z,21.45
2023-03-25T05:37:57.368Z,20.36
2023-03-25T05:39:00.084Z,21.40
2023-03-25T05:40:03.437Z,16.64
2023-03-25T05:41:10.139Z,20.80
2023-03-25T05:42:12.615Z,20.30
2023-03-25T05:43:15.631Z,21.40
2023-03-25T05:44:18.334Z,21.70
2023-03-25T05:45:21.583Z,16.70
2023-03-25T05:46:24.277Z,20.50
2023-03-25T05:47:29.285Z,16.20
2023-03-25T05:48:32.468Z,20.80
2023-03-25T05:49:34.766Z,20.40
2023-03-25T05:51:53.683Z,20.90
2023-03-25T05:52:56.808Z,18.90
2023-03-25T05:53:59.540Z,21.09
2023-03-25T05:55:04.439Z,21.36
2023-03-25T05:56:08.069Z,22.10
2023-03-25T05:57:10.883Z,21.70
2023-03-25T05:58:13.342Z,21.36
2023-03-25T05:59:16.109Z,19.90
2023-03-25T06:00:20.761Z,19.30
2023-03-25T06:01:33.345Z,16.80
2023-03-25T06:02:29.947Z,21.30
2023-03-25T06:03:33.730Z,22.00
2023-03-25T06:05:47.964Z,21.00
2023-03-25T06:06:50.368Z,19.70
2023-03-25T06:07:55.445Z,15.40
2023-03-25T06:08:58.213Z,21.80
2023-03-25T06:10:00.915Z,20.55
2023-03-25T06:11:03.548Z,20.30
2023-03-25T06:12:07.262Z,18.10
2023-03-25T06:13:09.567Z,20.80
2023-03-25T06:14:11.831Z,21.80
2023-03-25T06:15:24.666Z,20.10
2023-03-25T06:16:27.209Z,22.60
2023-03-25T06:17:29.617Z,22.60
2023-03-25T06:18:38.462Z,20.60
2023-03-25T06:19:40.788Z,23.80
2023-03-25T06:20:46.359Z,25.00
2023-03-25T06:21:50.616Z,23.00
2023-03-25T06:22:53.399Z,25.80
2023-03-25T06:23:59.118Z,27.09
2023-03-25T06:25:03.842Z,27.70
2023-03-25T06:26:06.881Z,29.80
2023-03-25T06:27:12.752Z,29.20
2023-03-25T06:28:16.811Z,31.30
2023-03-25T06:29:18.973Z,30.80
2023-03-25T06:30:21.722Z,33.20
2023-03-25T06:31:30.869Z,36.20
2023-03-25T06:32:33.468Z,41.60
2023-03-25T06:33:42.516Z,39.60
2023-03-25T06:34:41.899Z,41.70
2023-03-25T06:35:49.145Z,48.10
2023-03-25T06:36:54.637Z,50.50
2023-03-25T06:37:57.024Z,52.80
2023-03-25T06:39:05.681Z,53.10
2023-03-25T06:40:09.764Z,43.10
2023-03-25T06:41:13.417Z,50.60
2023-03-25T06:42:16.093Z,48.90
2023-03-25T06:43:23.207Z,45.60
2023-03-25T06:44:32.703Z,45.60
2023-03-25T06:45:52.616Z,44.80
2023-03-25T06:47:01.673Z,40.10
2023-03-25T06:48:09.970Z,42.50
2023-03-25T06:49:13.039Z,37.80
2023-03-25T06:50:15.721Z,38.60
2023-03-25T06:51:18.368Z,33.90
2023-03-25T06:52:21.147Z,34.40
2023-03-25T06:53:24.182Z,35.27
2023-03-25T06:54:27.119Z,34.64
2023-03-25T06:55:29.746Z,31.20
2023-03-25T06:56:32.232Z,31.40
2023-03-25T06:57:35.594Z,32.00
2023-03-25T06:58:38.479Z,29.90
2023-03-25T06:59:41.508Z,32.91
2023-03-25T07:00:45.914Z,30.09
2023-03-25T07:01:48.411Z,30.20
2023-03-25T07:02:50.895Z,28.00
2023-03-25T07:03:52.978Z,32.30
2023-03-25T07:04:57.514Z,31.40
2023-03-25T07:06:00.165Z,32.30
2023-03-25T07:07:02.381Z,32.50
2023-03-25T07:08:05.162Z,33.00
2023-03-25T07:09:08.028Z,32.50
2023-03-25T07:10:13.207Z,30.90
2023-03-25T07:11:19.155Z,32.40
2023-03-25T07:12:23.619Z,30.30
2023-03-25T07:13:26.786Z,30.20
2023-03-25T07:14:29.085Z,31.00
2023-03-25T07:15:31.417Z,31.80
2023-03-25T07:16:34.105Z,31.20
2023-03-25T07:17:36.442Z,29.00
2023-03-25T07:18:39.128Z,28.30
2023-03-25T07:19:43.579Z,29.80
2023-03-25T07:20:46.339Z,30.30
2023-03-25T07:21:49.599Z,27.50
2023-03-25T07:22:55.052Z,29.20
2023-03-25T07:23:57.696Z,27.90
2023-03-25T07:24:59.884Z,30.30
2023-03-25T07:26:02.344Z,29.60
2023-03-25T07:27:04.753Z,25.60
2023-03-25T07:28:08.694Z,30.00
2023-03-25T07:29:12.576Z,30.20
2023-03-25T07:30:15.891Z,30.10
2023-03-25T07:31:18.283Z,30.60
2023-03-25T07:32:20.776Z,30.60
2023-03-25T07:33:24.270Z,31.60
2023-03-25T07:34:27.062Z,32.80
2023-03-25T07:35:29.352Z,30.27
2023-03-25T07:36:31.554Z,32.70
2023-03-25T07:37:33.884Z,33.70
2023-03-25T07:38:37.383Z,30.40
2023-03-25T07:39:40.598Z,33.70
2023-03-25T07:40:43.363Z,32.00
2023-03-25T07:41:47.542Z,33.50
2023-03-25T07:42:58.493Z,30.90
2023-03-25T07:44:20.952Z,30.90
2023-03-25T07:45:25.212Z,31.40
2023-03-25T07:47:38.250Z,28.80
2023-03-25T07:48:41.931Z,28.60
2023-03-25T07:49:44.270Z,27.70
2023-03-25T07:50:49.337Z,27.80
2023-03-25T07:51:52.177Z,28.80
2023-03-25T07:52:54.912Z,27.60
2023-03-25T07:54:04.976Z,24.91
2023-03-25T07:55:02.852Z,27.90
2023-03-25T07:56:07.206Z,23.70
2023-03-25T07:57:10.677Z,26.50
2023-03-25T07:58:13.417Z,26.20
2023-03-25T07:59:15.473Z,24.50
2023-03-25T08:00:18.270Z,25.30
2023-03-25T08:01:20.291Z,24.30
2023-03-25T08:02:23.527Z,24.10
2023-03-25T08:03:27.370Z,24.60
2023-03-25T08:04:29.980Z,19.40
2023-03-25T08:05:32.797Z,22.30
2023-03-25T08:06:35.273Z,22.36
2023-03-25T08:07:38.041Z,23.60
2023-03-25T08:08:41.217Z,21.20
2023-03-25T08:09:43.363Z,22.27
2023-03-25T08:10:47.511Z,23.70
2023-03-25T08:11:51.254Z,23.50
2023-03-25T08:12:54.942Z,22.70
2023-03-25T08:14:00.021Z,19.20
2023-03-25T08:15:03.220Z,23.20
2023-03-25T08:16:14.780Z,24.50
2023-03-25T08:17:17.357Z,20.50
2023-03-25T08:18:19.763Z,23.50
2023-03-25T08:19:22.977Z,23.50
2023-03-25T08:20:25.706Z,17.20
2023-03-25T08:21:28.435Z,22.70
2023-03-25T08:22:31.798Z,24.20
2023-03-25T08:23:35.998Z,25.20
2023-03-25T08:24:38.258Z,24.40
2023-03-25T08:25:42.310Z,25.80
2023-03-25T08:26:44.595Z,26.20
2023-03-25T08:27:46.776Z,20.30
2023-03-25T08:28:48.970Z,23.40
2023-03-25T08:29:55.532Z,26.80
2023-03-25T08:30:58.650Z,24.90
2023-03-25T08:32:01.334Z,25.00
2023-03-25T08:33:07.132Z,24.30
2023-03-25T08:34:10.002Z,23.80
2023-03-25T08:35:13.322Z,25.30
2023-03-25T08:36:18.148Z,23.40
2023-03-25T08:37:21.076Z,25.00
2023-03-25T08:38:24.724Z,23.18
2023-03-25T08:39:28.733Z,24.50
2023-03-25T08:40:32.784Z,23.70
2023-03-25T08:41:37.485Z,23.40
2023-03-25T08:42:40.857Z,24.20
2023-03-25T08:43:45.069Z,24.30
2023-03-25T08:44:47.797Z,24.30
2023-03-25T08:45:50.519Z,23.50
2023-03-25T08:46:53.014Z,24.20
2023-03-25T08:47:55.416Z,23.60
2023-03-25T08:48:58.374Z,20.60
2023-03-25T08:50:00.739Z,23.30
2023-03-25T08:51:04.252Z,19.70
2023-03-25T08:52:08.111Z,22.90
2023-03-25T08:53:10.536Z,22.90
2023-03-25T08:54:12.860Z,22.40
2023-03-25T08:55:15.739Z,23.00
2023-03-25T08:56:18.158Z,22.91
2023-03-25T08:57:20.796Z,21.00
2023-03-25T08:58:24.367Z,22.40
2023-03-25T08:59:27.690Z,18.90
2023-03-25T09:00:31.025Z,23.60
2023-03-25T09:01:33.962Z,22.00
2023-03-25T09:02:36.419Z,23.60
2023-03-25T09:03:40.332Z,23.30
2023-03-25T09:04:43.247Z,21.00
2023-03-25T09:05:46.247Z,23.27
2023-03-25T09:07:11.378Z,18.80
2023-03-25T09:07:54.145Z,23.30
2023-03-25T09:08:56.757Z,22.20
2023-03-25T09:09:58.906Z,23.10
2023-03-25T09:11:01.704Z,18.40
2023-03-25T09:12:05.280Z,21.80
2023-03-25T09:13:09.231Z,23.20
2023-03-25T09:14:12.727Z,22.60
2023-03-25T09:15:15.137Z,21.30
2023-03-25T09:16:18.006Z,22.64
2023-03-25T09:17:20.498Z,21.60
2023-03-25T09:18:22.857Z,21.80
2023-03-25T09:19:25.655Z,22.80
2023-03-25T09:20:29.061Z,20.73
2023-03-25T09:21:31.360Z,22.90
2023-03-25T09:22:34.400Z,22.60
2023-03-25T09:23:36.998Z,22.00
2023-03-25T09:24:40.102Z,20.10
2023-03-25T09:25:43.165Z,22.00
2023-03-25T09:26:46.670Z,21.10
2023-03-25T09:27:49.076Z,23.10
2023-03-25T09:28:52.228Z,19.30
2023-03-25T09:29:54.722Z,18.00
2023-03-25T09:30:58.644Z,20.60
2023-03-25T09:32:01.655Z,22.40
2023-03-25T09:33:04.627Z,20.55
2023-03-25T09:34:08.069Z,20.10
2023-03-25T09:35:12.519Z,20.70
2023-03-25T09:36:16.239Z,22.00
2023-03-25T09:37:19.705Z,23.10
2023-03-25T09:38:22.997Z,20.00
2023-03-25T09:39:25.970Z,20.40
2023-03-25T09:40:28.697Z,21.20
2023-03-25T09:42:06.909Z,20.60
2023-03-25T09:43:21.810Z,20.30
2023-03-25T09:44:31.343Z,22.30
2023-03-25T09:45:47.083Z,21.90
2023-03-25T09:46:51.264Z,20.80
2023-03-25T09:48:02.947Z,17.30
2023-03-25T09:49:11.876Z,20.50
2023-03-25T09:50:18.467Z,20.10
2023-03-25T09:51:30.624Z,20.70
2023-03-25T09:52:46.486Z,20.80
2023-03-25T09:53:52.449Z,21.00
2023-03-25T09:54:58.944Z,21.80
2023-03-25T09:56:06.693Z,20.70
2023-03-25T09:57:13.220Z,19.10
2023-03-25T09:58:31.686Z,21.20
2023-03-25T10:01:02.882Z,22.40
2023-03-25T10:02:32.818Z,20.70
2023-03-25T10:03:57.046Z,23.20
2023-03-25T10:05:18.679Z,23.00
2023-03-25T10:06:26.060Z,21.90
2023-03-25T10:08:02.246Z,21.80
2023-03-25T10:09:20.282Z,22.40
2023-03-25T10:10:26.916Z,20.20
2023-03-25T10:11:49.330Z,18.60
2023-03-25T10:12:58.432Z,21.50
2023-03-25T10:14:21.027Z,20.00
2023-03-25T10:15:33.057Z,20.30
2023-03-25T10:16:55.622Z,21.20
2023-03-25T10:18:11.714Z,12.50
2023-03-25T10:19:38.367Z,21.40
2023-03-25T10:21:02.883Z,19.70
2023-03-25T10:22:09.043Z,22.40
2023-03-25T10:23:17.985Z,20.20
2023-03-25T10:24:23.737Z,20.50
2023-03-25T10:25:28.898Z,21.80
2023-03-25T10:26:49.857Z,17.20
2023-03-25T10:27:54.257Z,19.30
2023-03-25T10:29:09.298Z,20.60
2023-03-25T10:30:17.736Z,20.90
2023-03-25T10:31:25.333Z,22.30
2023-03-25T10:32:34.203Z,22.30
2023-03-25T10:33:43.086Z,19.10
2023-03-25T10:34:53.282Z,21.70
2023-03-25T10:36:06.455Z,20.60
2023-03-25T10:37:17.729Z,21.10
2023-03-25T10:38:24.164Z,20.70
2023-03-25T10:39:31.948Z,20.90
2023-03-25T10:40:40.964Z,21.50
2023-03-25T10:41:46.589Z,20.70
2023-03-25T10:43:27.536Z,21.00
2023-03-25T10:44:31.025Z,22.10
2023-03-25T10:45:35.685Z,17.40
2023-03-25T10:46:47.933Z,21.80
2023-03-25T10:47:53.740Z,20.70
2023-03-25T10:49:00.558Z,22.90
2023-03-25T10:50:04.071Z,21.10
2023-03-25T10:51:19.048Z,23.30
2023-03-25T10:52:22.099Z,21.70
2023-03-25T10:53:29.027Z,22.36
2023-03-25T10:54:40.487Z,19.50
2023-03-25T10:55:44.970Z,22.10
2023-03-25T10:56:51.318Z,15.30
2023-03-25T10:57:55.855Z,21.10
2023-03-25T10:59:02.389Z,20.40
2023-03-25T11:01:35.963Z,22.00
2023-03-25T11:02:39.011Z,20.80
2023-03-25T11:03:44.369Z,20.10
2023-03-25T11:04:50.536Z,21.20
2023-03-25T11:05:53.488Z,21.30
2023-03-25T11:06:58.864Z,18.50
2023-03-25T11:08:14.703Z,22.10
2023-03-25T11:09:14.916Z,21.80
2023-03-25T11:10:24.672Z,22.20
2023-03-25T11:11:35.020Z,21.50
2023-03-25T11:12:43.440Z,22.00
2023-03-25T11:13:46.342Z,20.70
2023-03-25T11:14:58.653Z,20.20
2023-03-25T11:16:03.183Z,19.00
2023-03-25T11:17:15.995Z,21.80
2023-03-25T11:18:21.925Z,20.30
2023-03-25T11:19:31.056Z,18.60
2023-03-25T11:20:43.666Z,14.30
2023-03-25T11:21:49.360Z,20.50
2023-03-25T11:22:55.011Z,15.90
2023-03-25T11:23:59.678Z,16.80
2023-03-25T11:25:08.466Z,21.80
2023-03-25T11:26:24.342Z,21.20
2023-03-25T11:27:29.379Z,20.00
2023-03-25T11:28:41.232Z,20.50
2023-03-25T11:29:48.138Z,21.70
2023-03-25T11:31:20.555Z,21.40
2023-03-25T11:32:26.060Z,21.00
2023-03-25T11:33:28.506Z,20.50
2023-03-25T11:34:33.504Z,18.40
2023-03-25T11:35:39.463Z,20.90
2023-03-25T11:37:04.118Z,18.20
2023-03-25T11:38:22.775Z,21.80
2023-03-25T11:39:40.043Z,20.20
2023-03-25T11:40:57.893Z,21.00
2023-03-25T11:42:03.122Z,22.00
2023-03-25T11:43:09.590Z,21.90
2023-03-25T11:44:28.366Z,21.90
2023-03-25T11:45:39.297Z,20.30
2023-03-25T11:46:45.188Z,21.20
2023-03-25T11:47:48.464Z,22.90
2023-03-25T11:48:51.916Z,21.60
2023-03-25T11:49:56.022Z,21.30
2023-03-25T11:51:05.255Z,20.30
2023-03-25T11:52:11.541Z,18.40
2023-03-25T11:53:18.304Z,21.50
2023-03-25T11:54:20.598Z,20.50
2023-03-25T11:55:26.631Z,21.80
2023-03-25T11:56:32.876Z,22.00
2023-03-25T11:57:38.833Z,19.40
2023-03-25T11:58:41.455Z,20.80
2023-03-25T11:59:46.440Z,21.82
2023-03-25T12:00:50.957Z,23.10
2023-03-25T12:02:06.505Z,22.50
2023-03-25T12:03:19.732Z,22.20
2023-03-25T12:04:24.252Z,22.00
2023-03-25T12:05:26.513Z,21.00
2023-03-25T12:06:29.994Z,19.40
2023-03-25T12:07:46.049Z,22.60
2023-03-25T12:09:00.050Z,19.30
2023-03-25T12:10:06.871Z,21.00
2023-03-25T12:11:16.235Z,22.20
2023-03-25T12:12:32.055Z,20.40
2023-03-25T12:13:55.825Z,23.20
2023-03-25T12:15:21.459Z,21.40
2023-03-25T12:16:54.131Z,19.50
2023-03-25T12:18:03.152Z,22.60
2023-03-25T12:19:32.425Z,21.70
2023-03-25T12:20:47.224Z,23.50
2023-03-25T12:22:00.277Z,24.60
2023-03-25T12:23:19.021Z,24.60
2023-03-25T12:24:43.913Z,24.00
2023-03-25T12:25:52.368Z,21.90
2023-03-25T12:27:07.649Z,22.30
2023-03-25T12:28:48.125Z,24.20
2023-03-25T12:30:00.331Z,22.80
2023-03-25T12:31:27.691Z,23.50
2023-03-25T12:32:33.687Z,23.50
2023-03-25T12:34:00.765Z,22.50
2023-03-25T12:36:29.975Z,22.70
2023-03-25T12:37:38.780Z,19.40
2023-03-25T12:38:57.808Z,22.70
2023-03-25T12:40:21.162Z,23.50
2023-03-25T12:41:46.738Z,21.50
2023-03-25T12:44:34.385Z,21.70
2023-03-25T12:45:44.559Z,20.80
2023-03-25T12:47:08.925Z,23.60
2023-03-25T12:48:19.488Z,22.30
2023-03-25T12:49:41.041Z,22.70
2023-03-25T12:51:00.359Z,23.50
2023-03-25T12:52:31.552Z,22.70
2023-03-25T12:53:41.649Z,19.30
2023-03-25T12:55:05.328Z,22.00
2023-03-25T12:56:13.971Z,23.50
2023-03-25T12:57:40.002Z,23.20
2023-03-25T12:58:58.631Z,23.40
2023-03-25T13:00:08.247Z,23.00
2023-03-25T13:01:38.502Z,22.30
2023-03-25T13:03:02.741Z,24.00
2023-03-25T13:04:15.308Z,22.10
2023-03-25T13:05:39.334Z,23.20
2023-03-25T13:07:02.236Z,23.20
2023-03-25T13:08:22.443Z,24.30
2023-03-25T13:09:37.509Z,24.50
2023-03-25T13:10:43.943Z,22.00
2023-03-25T13:11:55.885Z,23.50
2023-03-25T13:13:01.548Z,22.80
2023-03-25T13:14:11.166Z,22.20
2023-03-25T13:15:27.875Z,23.70
2023-03-25T13:16:33.670Z,23.00
2023-03-25T13:17:42.916Z,22.70
2023-03-25T13:18:51.669Z,24.00
2023-03-25T13:19:58.610Z,23.60
2023-03-25T13:21:14.422Z,23.10
2023-03-25T13:23:37.603Z,24.70
2023-03-25T13:24:52.359Z,23.50
2023-03-25T13:26:01.472Z,22.60
2023-03-25T13:27:05.659Z,23.70
2023-03-25T13:28:11.965Z,22.50
2023-03-25T13:29:27.438Z,24.30
2023-03-25T13:30:39.317Z,23.80
2023-03-25T13:31:46.492Z,24.20
2023-03-25T13:32:52.328Z,22.60
2023-03-25T13:34:30.353Z,22.90
2023-03-25T13:35:48.743Z,24.40
2023-03-25T13:37:21.862Z,22.30
2023-03-25T13:38:33.460Z,23.60
2023-03-25T13:39:45.827Z,24.10
2023-03-25T13:41:09.116Z,25.20
2023-03-25T13:42:15.520Z,24.40
2023-03-25T13:44:43.813Z,23.30
2023-03-25T13:45:56.882Z,22.60
2023-03-25T13:47:03.290Z,21.10
2023-03-25T13:48:15.072Z,25.00
2023-03-25T13:49:37.601Z,23.90
2023-03-25T13:50:40.400Z,25.90
2023-03-25T13:51:43.939Z,22.80
2023-03-25T13:52:50.104Z,23.40
2023-03-25T13:54:02.120Z,21.10
2023-03-25T13:56:46.809Z,23.00
2023-03-25T13:59:30.528Z,24.10
2023-03-25T14:00:39.374Z,23.10
2023-03-25T14:02:02.009Z,23.70
2023-03-25T14:03:43.398Z,25.10
2023-03-25T14:05:09.263Z,24.70
2023-03-25T14:08:25.866Z,23.50
2023-03-25T14:09:50.296Z,25.40
2023-03-25T14:11:15.751Z,23.60
2023-03-25T14:13:32.683Z,22.30
2023-03-25T14:14:41.504Z,24.00
2023-03-25T14:16:53.907Z,23.60
2023-03-25T14:19:06.985Z,22.40
2023-03-25T14:20:12.433Z,22.90
2023-03-25T14:21:33.722Z,22.70
2023-03-25T14:22:43.644Z,23.80
2023-03-25T14:23:46.316Z,23.90
2023-03-25T14:24:51.246Z,24.60
2023-03-25T14:25:59.416Z,23.60
2023-03-25T14:27:20.347Z,24.50
2023-03-25T14:28:43.141Z,23.00
2023-03-25T14:29:49.035Z,22.70
2023-03-25T14:31:16.938Z,23.10
2023-03-25T14:32:23.621Z,23.80
2023-03-25T14:33:26.402Z,23.50
2023-03-25T14:34:28.769Z,24.20
2023-03-25T14:35:38.531Z,24.70
2023-03-25T14:36:46.113Z,22.20
2023-03-25T14:37:49.430Z,22.20
2023-03-25T14:38:55.842Z,21.80
2023-03-25T14:40:04.077Z,23.50
2023-03-25T14:41:06.674Z,26.10
2023-03-25T14:42:12.851Z,21.91
2023-03-25T14:43:39.743Z,22.40
2023-03-25T14:44:50.969Z,21.60
2023-03-25T14:46:18.800Z,24.10
2023-03-25T14:47:31.269Z,21.90
2023-03-25T14:48:37.193Z,21.70
2023-03-25T14:49:52.938Z,20.50
2023-03-25T14:51:27.874Z,22.40
2023-03-25T14:52:34.472Z,22.70
2023-03-25T14:53:38.943Z,22.80
2023-03-25T14:54:43.116Z,23.00
2023-03-25T14:55:47.113Z,20.80
2023-03-25T14:56:57.402Z,22.50